createdAt,value
2019-01-31T00:12:04.047Z,1.10
2019-01-31T01:09:28.374Z,1.20
2019-01-31T01:22:33.239Z,1.20
2019-01-31T01:44:51.594Z,1.20
2019-01-31T02:03:59.632Z,1.20
2019-01-31T02:50:22.475Z,1.10
2019-01-31T04:04:48.093Z,1.20
2019-01-31T04:10:27.487Z,1.20
2019-01-31T04:12:57.523Z,1.10
2019-01-31T04:15:28.268Z,1.20
2019-01-31T04:17:59.086Z,1.10
2019-01-31T04:58:09.668Z,1.10
2019-01-31T05:00:39.837Z,1.10
2019-01-31T05:03:10.128Z,1.10
2019-01-31T05:05:42.112Z,1.20
2019-01-31T05:08:12.674Z,1.20
2019-01-31T05:10:43.537Z,1.10
2019-01-31T05:16:23.179Z,1.10
2019-01-31T05:18:53.915Z,1.10
2019-01-31T05:21:24.058Z,1.10
2019-01-31T05:24:30.816Z,1.10
2019-01-31T05:27:04.376Z,1.10
2019-01-31T05:29:34.298Z,1.10
2019-01-31T05:32:07.753Z,1.10
2019-01-31T05:34:38.964Z,1.10
2019-01-31T05:37:09.573Z,1.10
2019-01-31T05:39:39.565Z,1.10
2019-01-31T05:42:10.799Z,1.10
2019-01-31T05:44:45.603Z,1.10
2019-01-31T05:47:16.422Z,1.10
2019-01-31T05:49:46.417Z,1.10
2019-01-31T05:52:16.480Z,1.10
2019-01-31T06:07:28.097Z,1.10
2019-01-31T06:09:58.817Z,1.20
2019-01-31T06:12:28.819Z,1.10
2019-01-31T06:18:20.590Z,1.20
2019-01-31T06:20:58.731Z,1.20
2019-01-31T06:23:29.651Z,1.10
2019-01-31T06:25:59.732Z,1.10
2019-01-31T06:28:29.883Z,1.10
2019-01-31T06:34:11.649Z,1.10
2019-01-31T06:36:42.277Z,1.20
2019-01-31T06:39:12.430Z,1.20
2019-01-31T06:41:42.392Z,1.10
2019-01-31T06:44:13.638Z,1.10
2019-01-31T06:46:43.838Z,1.10
2019-01-31T06:49:14.000Z,1.20
2019-01-31T06:51:44.180Z,1.20
2019-01-31T06:54:20.634Z,1.20
2019-01-31T06:56:50.890Z,1.20
2019-01-31T06:59:21.625Z,1.10
2019-01-31T07:01:51.671Z,1.10
2019-01-31T07:04:21.730Z,1.10
2019-01-31T07:06:52.137Z,1.10
2019-01-31T07:09:22.288Z,1.10
2019-01-31T07:11:52.287Z,1.10
2019-01-31T07:14:23.473Z,1.10
2019-01-31T07:16:53.426Z,1.10
2019-01-31T07:19:23.729Z,1.20
2019-01-31T07:21:53.977Z,1.20
2019-01-31T07:24:24.084Z,1.20
2019-01-31T07:26:54.266Z,1.20
2019-01-31T07:29:24.637Z,1.20
2019-01-31T07:31:55.010Z,1.20
2019-01-31T07:34:25.450Z,1.20
2019-01-31T07:36:55.508Z,1.20
2019-01-31T07:39:26.077Z,1.20
2019-01-31T07:41:56.235Z,1.20
2019-01-31T07:44:26.153Z,1.20
2019-01-31T07:46:56.713Z,1.20
2019-01-31T07:49:26.824Z,1.20
2019-01-31T07:51:57.257Z,1.20
2019-01-31T07:54:27.456Z,1.20
2019-01-31T07:56:57.677Z,1.20
2019-01-31T07:59:27.940Z,1.20
2019-01-31T08:01:58.081Z,1.30
2019-01-31T08:04:28.834Z,1.30
2019-01-31T08:06:59.036Z,1.30
2019-01-31T08:09:29.045Z,1.30
2019-01-31T08:11:59.467Z,1.30
2019-01-31T08:14:29.889Z,1.30
2019-01-31T08:17:00.625Z,1.30
2019-01-31T08:19:30.700Z,1.40
2019-01-31T08:22:00.935Z,1.40
2019-01-31T08:24:30.806Z,1.40
2019-01-31T08:27:00.999Z,1.40
2019-01-31T08:29:31.190Z,1.50
2019-01-31T08:32:01.505Z,1.50
2019-01-31T08:34:31.734Z,1.60
2019-01-31T08:37:02.246Z,1.60
2019-01-31T08:39:32.303Z,1.60
2019-01-31T08:42:03.804Z,1.70
2019-01-31T08:44:34.261Z,1.80
2019-01-31T08:47:04.265Z,1.80
2019-01-31T08:49:34.585Z,1.80
2019-01-31T08:52:05.003Z,1.80
2019-01-31T08:54:35.217Z,1.80
2019-01-31T08:57:05.357Z,1.90
2019-01-31T08:59:35.398Z,2.00
2019-01-31T09:02:05.802Z,2.10
2019-01-31T09:04:35.924Z,2.20
2019-01-31T09:07:05.983Z,2.40
2019-01-31T09:09:36.108Z,2.40
2019-01-31T09:12:15.331Z,2.50
2019-01-31T09:14:40.910Z,2.50
2019-01-31T09:17:11.013Z,2.60
2019-01-31T09:19:41.178Z,2.50
2019-01-31T09:22:41.586Z,2.60
2019-01-31T09:25:27.264Z,2.60
2019-01-31T09:28:50.456Z,2.60
2019-01-31T09:31:46.063Z,2.60
2019-01-31T09:34:51.484Z,2.60
2019-01-31T09:38:07.759Z,2.60
2019-01-31T09:41:10.325Z,2.60
2019-01-31T09:44:03.950Z,2.60
2019-01-31T09:47:11.078Z,2.60
2019-01-31T09:50:08.811Z,2.60
2019-01-31T09:53:22.391Z,2.60
2019-01-31T09:56:18.252Z,2.60
2019-01-31T09:58:57.795Z,2.60
2019-01-31T10:02:00.234Z,2.60
2019-01-31T10:05:03.568Z,2.60
2019-01-31T10:07:57.253Z,2.70
2019-01-31T10:11:04.830Z,2.70
2019-01-31T10:14:22.469Z,2.80
2019-01-31T10:17:48.629Z,2.80
2019-01-31T10:20:54.256Z,2.80
2019-01-31T10:23:45.092Z,2.70
2019-01-31T10:27:02.046Z,2.70
2019-01-31T10:30:08.457Z,2.70
2019-01-31T10:33:16.413Z,2.70
2019-01-31T10:36:06.299Z,2.80
2019-01-31T10:38:51.499Z,2.90
2019-01-31T10:41:53.971Z,2.90
2019-01-31T10:44:58.652Z,3.00
2019-01-31T10:47:48.822Z,3.00
2019-01-31T10:50:51.298Z,3.00
2019-01-31T10:53:40.590Z,3.00
2019-01-31T10:56:37.228Z,3.10
2019-01-31T10:59:58.950Z,3.10
2019-01-31T11:03:08.787Z,3.10
2019-01-31T11:05:55.730Z,3.10
2019-01-31T11:08:57.588Z,3.10
2019-01-31T11:11:43.201Z,3.20
2019-01-31T11:14:46.202Z,3.20
2019-01-31T11:17:56.479Z,3.20
2019-01-31T11:21:06.426Z,3.20
2019-01-31T11:23:57.535Z,3.20
2019-01-31T11:27:11.040Z,3.20
2019-01-31T11:30:14.562Z,3.20
2019-01-31T11:33:04.903Z,3.20
2019-01-31T11:36:02.982Z,3.10
2019-01-31T11:39:11.980Z,3.10
2019-01-31T11:42:06.788Z,3.10
2019-01-31T11:45:05.132Z,3.10
2019-01-31T11:48:00.938Z,3.10
2019-01-31T11:51:14.584Z,3.30
2019-01-31T11:54:37.829Z,3.40
2019-01-31T11:57:49.092Z,3.50
2019-01-31T12:00:21.393Z,3.70
2019-01-31T12:02:55.121Z,3.70
2019-01-31T12:05:23.443Z,3.80
2019-01-31T12:07:53.830Z,3.80
2019-01-31T12:10:23.970Z,3.90
2019-01-31T12:12:54.320Z,3.90
2019-01-31T12:15:24.417Z,4.00
2019-01-31T12:17:55.597Z,4.00
2019-01-31T12:20:25.652Z,4.00
2019-01-31T12:22:56.005Z,4.00
2019-01-31T12:25:26.239Z,4.00
2019-01-31T12:27:56.752Z,4.10
2019-01-31T12:30:27.918Z,4.10
2019-01-31T12:32:57.957Z,4.00
2019-01-31T12:35:29.856Z,3.90
2019-01-31T12:38:00.268Z,3.90
2019-01-31T12:40:30.521Z,3.90
2019-01-31T12:43:00.789Z,3.80
2019-01-31T12:45:31.018Z,3.90
2019-01-31T12:48:01.754Z,4.00
2019-01-31T12:50:32.066Z,4.00
2019-01-31T12:53:02.812Z,3.90
2019-01-31T12:55:33.151Z,3.70
2019-01-31T12:58:03.191Z,3.50
2019-01-31T13:00:33.158Z,3.30
2019-01-31T13:03:03.270Z,3.20
2019-01-31T13:05:33.728Z,3.20
2019-01-31T13:08:03.853Z,3.20
2019-01-31T13:10:34.184Z,3.20
2019-01-31T13:13:04.870Z,3.20
2019-01-31T13:15:35.018Z,3.20
2019-01-31T13:18:05.912Z,3.10
2019-01-31T13:20:36.755Z,3.10
2019-01-31T13:23:08.653Z,3.00
2019-01-31T13:25:38.789Z,2.90
2019-01-31T13:28:09.107Z,2.90
2019-01-31T13:30:42.121Z,2.90
2019-01-31T13:33:13.700Z,2.90
2019-01-31T13:35:43.847Z,2.90
2019-01-31T13:38:13.977Z,2.80
2019-01-31T13:40:44.121Z,2.90
2019-01-31T13:43:15.029Z,2.80
2019-01-31T13:45:45.131Z,2.80
2019-01-31T13:48:16.455Z,2.70
2019-01-31T13:50:46.950Z,2.60
2019-01-31T13:53:17.040Z,2.70
2019-01-31T13:55:50.760Z,2.70
2019-01-31T13:58:21.088Z,2.80
2019-01-31T14:00:51.181Z,2.80
2019-01-31T14:03:21.317Z,2.70
2019-01-31T14:05:52.189Z,2.60
2019-01-31T14:08:22.608Z,2.50
2019-01-31T14:10:52.872Z,2.40
2019-01-31T14:13:22.955Z,2.40
2019-01-31T14:15:53.861Z,2.30
2019-01-31T14:18:23.937Z,2.30
2019-01-31T14:20:54.486Z,2.20
2019-01-31T14:23:24.921Z,2.10
2019-01-31T14:25:54.945Z,2.10
2019-01-31T14:28:25.220Z,2.10
2019-01-31T14:30:57.630Z,2.10
2019-01-31T14:33:28.436Z,2.00
2019-01-31T14:36:00.179Z,2.00
2019-01-31T14:38:30.341Z,2.00
2019-01-31T14:41:00.571Z,2.00
2019-01-31T14:43:30.862Z,1.90
2019-01-31T14:46:00.811Z,1.90
2019-01-31T14:48:33.242Z,1.90
2019-01-31T14:51:03.382Z,2.00
2019-01-31T14:53:33.798Z,2.10
2019-01-31T14:56:04.001Z,2.10
2019-01-31T14:58:34.621Z,2.10
2019-01-31T15:01:04.717Z,2.10
2019-01-31T15:03:34.936Z,2.10
2019-01-31T15:06:05.160Z,2.00
2019-01-31T15:08:35.432Z,2.00
2019-01-31T15:11:05.792Z,1.90
2019-01-31T15:13:36.156Z,1.90
2019-01-31T15:16:06.380Z,1.80
2019-01-31T15:18:36.569Z,1.70
2019-01-31T15:21:07.013Z,1.70
2019-01-31T15:23:37.000Z,1.70
2019-01-31T15:26:07.058Z,1.60
2019-01-31T15:28:38.765Z,1.50
2019-01-31T15:31:08.830Z,1.50
2019-01-31T15:33:39.102Z,1.60
2019-01-31T15:36:09.735Z,1.60
2019-01-31T15:38:40.153Z,1.70
2019-01-31T15:41:10.371Z,1.60
2019-01-31T15:43:41.556Z,1.60
2019-01-31T15:46:13.569Z,1.60
2019-01-31T15:48:44.424Z,1.60
2019-01-31T15:51:14.835Z,1.60
2019-01-31T15:53:45.419Z,1.60
2019-01-31T15:56:15.519Z,1.50
2019-01-31T15:58:45.620Z,1.50
2019-01-31T16:01:15.695Z,1.40
2019-01-31T16:03:46.058Z,1.30
2019-01-31T16:06:17.420Z,1.10
2019-01-31T16:08:48.223Z,1.10
2019-01-31T16:11:18.590Z,1.00
2019-01-31T16:13:48.818Z,0.90
2019-01-31T16:16:20.158Z,0.90
2019-01-31T16:18:51.110Z,0.90
2019-01-31T16:21:21.792Z,0.80
2019-01-31T16:23:52.062Z,0.80
2019-01-31T16:26:22.462Z,0.70
2019-01-31T16:28:52.722Z,0.70
2019-01-31T16:31:23.114Z,0.70
2019-01-31T16:33:53.629Z,0.70
2019-01-31T16:36:24.728Z,0.70
2019-01-31T16:45:51.574Z,0.50
2019-01-31T16:48:22.687Z,0.40
2019-01-31T16:50:53.565Z,0.40
2019-01-31T16:56:55.490Z,0.30
2019-01-31T17:00:16.322Z,0.20
2019-01-31T17:23:28.961Z,0.10
